RYR59HF EGPH-BIKF
Flight info
| Callsign | RYR59HF |
|---|---|
| Flight time | N/A |
| Altitude | 33000 |
| Route | GRICE P600 ASNUD DCT NESDI/N0429F340 DCT RUGID DCT ATSIX/M074F340 DCT 6100N01234W DCT ALDAN/M076F360 DCT ASRUN ASRUN3K |
| Aircraft | B738/M-SDE2E3FGHIRWXY/LB1 |
Departure
| Time | 2026-04-25 18:44 |
|---|---|
| Airport | Edinburgh Airport (EGPH) |
Arrival
| Time | N/A |
|---|---|
| Airport | Keflavik International Airport (BIKF) |
| Time | Latitude | Longitude | Altitude | Speed | Heading |
|---|---|---|---|---|---|
| 2026-04-25 18:07 | 55.94907 | -3.36004 | 107 ft | 0 kts | 207° |
| 2026-04-25 18:34 | 55.94932 | -3.35981 | 107 ft | 3 kts | 207° |
| 2026-04-25 18:34 | 55.94955 | -3.35960 | 106 ft | 3 kts | 207° |
| 2026-04-25 18:34 | 55.94979 | -3.35939 | 106 ft | 3 kts | 207° |
| 2026-04-25 18:34 | 55.94988 | -3.35930 | 107 ft | 0 kts | 207° |
| 2026-04-25 18:36 | 55.94985 | -3.35931 | 107 ft | 0 kts | 181° |
| 2026-04-25 18:36 | 55.94978 | -3.35906 | 107 ft | 4 kts | 89° |
| 2026-04-25 18:36 | 55.94986 | -3.35876 | 108 ft | 0 kts | 39° |
| 2026-04-25 18:38 | 55.94989 | -3.35872 | 108 ft | 0 kts | 40° |
| 2026-04-25 18:38 | 55.94996 | -3.35862 | 108 ft | 2 kts | 39° |
| 2026-04-25 18:38 | 55.95039 | -3.35873 | 108 ft | 12 kts | 304° |
| 2026-04-25 18:39 | 55.95105 | -3.36074 | 105 ft | 20 kts | 292° |
| 2026-04-25 18:39 | 55.95129 | -3.36288 | 105 ft | 15 kts | 246° |
| 2026-04-25 18:39 | 55.95076 | -3.36449 | 105 ft | 13 kts | 239° |
| 2026-04-25 18:39 | 55.95029 | -3.36587 | 105 ft | 12 kts | 239° |
| 2026-04-25 18:40 | 55.94991 | -3.36701 | 105 ft | 9 kts | 239° |
| 2026-04-25 18:40 | 55.94955 | -3.36804 | 103 ft | 9 kts | 239° |
| 2026-04-25 18:40 | 55.94927 | -3.36885 | 103 ft | 5 kts | 238° |
| 2026-04-25 18:40 | 55.94903 | -3.36956 | 104 ft | 11 kts | 239° |
| 2026-04-25 18:41 | 55.94834 | -3.37154 | 105 ft | 26 kts | 238° |
| 2026-04-25 18:41 | 55.94741 | -3.37441 | 104 ft | 25 kts | 240° |
| 2026-04-25 18:41 | 55.94653 | -3.37702 | 106 ft | 23 kts | 238° |
| 2026-04-25 18:41 | 55.94575 | -3.37927 | 109 ft | 20 kts | 240° |
| 2026-04-25 18:42 | 55.94495 | -3.38146 | 112 ft | 21 kts | 234° |
| 2026-04-25 18:42 | 55.94440 | -3.38298 | 113 ft | 21 kts | 238° |
| 2026-04-25 18:42 | 55.94346 | -3.38598 | 118 ft | 22 kts | 239° |
| 2026-04-25 18:42 | 55.94288 | -3.38851 | 119 ft | 19 kts | 297° |
| 2026-04-25 18:43 | 55.94395 | -3.38968 | 117 ft | 16 kts | 1° |
| 2026-04-25 18:43 | 55.94457 | -3.38847 | 116 ft | 11 kts | 60° |
| 2026-04-25 18:43 | 55.94495 | -3.38732 | 113 ft | 11 kts | 59° |
| 2026-04-25 18:43 | 55.94589 | -3.38452 | 110 ft | 56 kts | 59° |
| 2026-04-25 18:44 | 55.94906 | -3.37500 | 102 ft | 113 kts | 60° |
| 2026-04-25 18:44 | 55.95442 | -3.35950 | 127 ft | 177 kts | 59° |
| 2026-04-25 18:44 | 55.96139 | -3.33893 | 671 ft | 201 kts | 58° |
| 2026-04-25 18:44 | 55.96889 | -3.32147 | 1917 ft | 174 kts | 40° |
| 2026-04-25 18:45 | 55.97913 | -3.30998 | 2445 ft | 183 kts | 25° |
| 2026-04-25 18:45 | 55.99153 | -3.30104 | 2560 ft | 202 kts | 12° |
| 2026-04-25 18:45 | 56.00468 | -3.29363 | 3257 ft | 199 kts | 29° |
| 2026-04-25 18:45 | 56.01591 | -3.28186 | 3955 ft | 195 kts | 25° |
| 2026-04-25 18:46 | 56.02890 | -3.27324 | 4557 ft | 197 kts | 10° |
| 2026-04-25 18:46 | 56.04242 | -3.27399 | 5137 ft | 197 kts | 343° |
| 2026-04-25 18:46 | 56.05440 | -3.28554 | 5730 ft | 199 kts | 322° |
| 2026-04-25 18:46 | 56.06387 | -3.30326 | 6307 ft | 201 kts | 309° |
| 2026-04-25 18:47 | 56.07233 | -3.33057 | 6947 ft | 207 kts | 292° |
| 2026-04-25 18:47 | 56.07605 | -3.35623 | 6989 ft | 213 kts | 286° |
| 2026-04-25 18:47 | 56.07931 | -3.38158 | 6984 ft | 204 kts | 287° |
| 2026-04-25 18:47 | 56.08255 | -3.40610 | 6998 ft | 204 kts | 287° |
| 2026-04-25 18:48 | 56.08581 | -3.43084 | 6994 ft | 206 kts | 287° |
| 2026-04-25 18:48 | 56.08908 | -3.45592 | 6993 ft | 206 kts | 286° |
| 2026-04-25 18:48 | 56.09230 | -3.48077 | 6993 ft | 206 kts | 286° |
| 2026-04-25 18:48 | 56.09551 | -3.50566 | 6993 ft | 205 kts | 286° |
| 2026-04-25 18:49 | 56.09893 | -3.53040 | 6991 ft | 205 kts | 291° |
| 2026-04-25 18:49 | 56.10458 | -3.55384 | 6996 ft | 203 kts | 300° |
| 2026-04-25 18:49 | 56.11150 | -3.57599 | 6994 ft | 203 kts | 302° |
| 2026-04-25 18:49 | 56.11858 | -3.59789 | 6993 ft | 203 kts | 302° |
| 2026-04-25 18:50 | 56.12573 | -3.61964 | 6992 ft | 203 kts | 306° |
| 2026-04-25 18:50 | 56.13440 | -3.63884 | 6992 ft | 202 kts | 316° |
| 2026-04-25 18:50 | 56.14550 | -3.65488 | 6993 ft | 202 kts | 327° |
| 2026-04-25 18:50 | 56.15811 | -3.66601 | 6994 ft | 202 kts | 338° |
| 2026-04-25 18:51 | 56.17162 | -3.67320 | 7145 ft | 200 kts | 346° |
| 2026-04-25 18:51 | 56.17616 | -3.67460 | 7229 ft | 201 kts | 350° |
| 2026-04-25 18:51 | 56.19987 | -3.67268 | 7640 ft | 213 kts | 9° |
| 2026-04-25 18:51 | 56.21397 | -3.66319 | 7877 ft | 218 kts | 23° |
| 2026-04-25 18:52 | 56.22679 | -3.64860 | 8114 ft | 222 kts | 31° |
| 2026-04-25 18:52 | 56.23934 | -3.63182 | 8353 ft | 224 kts | 32° |
| 2026-04-25 18:52 | 56.25195 | -3.61494 | 8591 ft | 226 kts | 31° |
| 2026-04-25 18:52 | 56.26465 | -3.59837 | 8827 ft | 228 kts | 31° |
| 2026-04-25 18:53 | 56.27752 | -3.58178 | 9064 ft | 230 kts | 30° |
| 2026-04-25 18:53 | 56.29063 | -3.56490 | 9302 ft | 232 kts | 30° |
| 2026-04-25 18:53 | 56.30366 | -3.54812 | 9538 ft | 234 kts | 30° |
| 2026-04-25 18:53 | 56.31696 | -3.53099 | 9776 ft | 236 kts | 31° |
| 2026-04-25 18:54 | 56.34379 | -3.49639 | 10251 ft | 239 kts | 31° |
| 2026-04-25 18:54 | 56.35745 | -3.47877 | 10444 ft | 248 kts | 31° |
| 2026-04-25 18:54 | 56.37203 | -3.46002 | 10674 ft | 269 kts | 31° |
| 2026-04-25 18:55 | 56.38777 | -3.43967 | 10948 ft | 289 kts | 32° |
| 2026-04-25 18:55 | 56.40479 | -3.41762 | 11215 ft | 309 kts | 32° |
| 2026-04-25 18:55 | 56.42274 | -3.39464 | 11455 ft | 329 kts | 33° |
| 2026-04-25 18:55 | 56.44178 | -3.37000 | 11692 ft | 340 kts | 33° |
| 2026-04-25 18:56 | 56.46120 | -3.34527 | 11924 ft | 340 kts | 32° |
| 2026-04-25 18:56 | 56.48052 | -3.32137 | 12157 ft | 339 kts | 32° |
| 2026-04-25 18:56 | 56.50001 | -3.29737 | 12395 ft | 340 kts | 32° |
| 2026-04-25 18:56 | 56.51980 | -3.27296 | 12635 ft | 343 kts | 32° |
| 2026-04-25 18:57 | 56.53391 | -3.25553 | 12805 ft | 344 kts | 32° |
| 2026-04-25 18:57 | 56.55390 | -3.23078 | 13044 ft | 346 kts | 32° |
| 2026-04-25 18:57 | 56.57368 | -3.20625 | 13306 ft | 347 kts | 32° |
| 2026-04-25 18:57 | 56.58027 | -3.19806 | 13426 ft | 347 kts | 32° |
| 2026-04-25 18:58 | 56.61444 | -3.15885 | 14053 ft | 350 kts | 21° |
| 2026-04-25 18:58 | 56.66128 | -3.13904 | 14807 ft | 345 kts | 356° |
| 2026-04-25 18:58 | 56.68484 | -3.14232 | 15180 ft | 341 kts | 344° |
| 2026-04-25 18:59 | 56.72815 | -3.17339 | 15934 ft | 333 kts | 321° |
| 2026-04-25 18:59 | 56.76093 | -3.23162 | 16841 ft | 330 kts | 301° |
| 2026-04-25 19:00 | 56.78725 | -3.30072 | 17893 ft | 333 kts | 299° |
| 2026-04-25 19:00 | 56.80030 | -3.33552 | 18416 ft | 335 kts | 299° |
| 2026-04-25 19:01 | 56.82668 | -3.40578 | 19465 ft | 339 kts | 299° |
| 2026-04-25 19:01 | 56.83997 | -3.44116 | 19988 ft | 341 kts | 299° |
| 2026-04-25 19:01 | 56.85350 | -3.47714 | 20518 ft | 343 kts | 298° |
| 2026-04-25 19:01 | 56.86685 | -3.51261 | 21051 ft | 344 kts | 298° |
| 2026-04-25 19:02 | 56.89389 | -3.58485 | 22100 ft | 346 kts | 298° |
| 2026-04-25 19:02 | 56.90745 | -3.62119 | 22625 ft | 346 kts | 298° |
| 2026-04-25 19:02 | 56.92097 | -3.65748 | 23150 ft | 346 kts | 297° |
| 2026-04-25 19:03 | 56.93896 | -3.70589 | 23849 ft | 345 kts | 297° |
| 2026-04-25 19:03 | 56.96130 | -3.76615 | 24722 ft | 344 kts | 296° |
| 2026-04-25 19:03 | 56.97464 | -3.80220 | 25245 ft | 343 kts | 296° |
| 2026-04-25 19:04 | 57.00113 | -3.87392 | 26294 ft | 338 kts | 296° |
| 2026-04-25 19:04 | 57.01426 | -3.90950 | 26820 ft | 335 kts | 296° |
| 2026-04-25 19:05 | 57.03990 | -3.97920 | 27865 ft | 328 kts | 296° |
| 2026-04-25 19:05 | 57.06485 | -4.04726 | 28909 ft | 318 kts | 296° |
| 2026-04-25 19:05 | 57.07701 | -4.08049 | 29431 ft | 311 kts | 296° |
| 2026-04-25 19:06 | 57.08901 | -4.11337 | 29957 ft | 304 kts | 296° |
| 2026-04-25 19:06 | 57.11209 | -4.17689 | 30567 ft | 303 kts | 296° |
| 2026-04-25 19:06 | 57.12396 | -4.20974 | 30587 ft | 311 kts | 297° |
| 2026-04-25 19:07 | 57.14849 | -4.27740 | 30633 ft | 328 kts | 297° |
| 2026-04-25 19:07 | 57.16136 | -4.31287 | 30649 ft | 337 kts | 297° |
| 2026-04-25 19:08 | 57.18525 | -4.37875 | 30671 ft | 352 kts | 298° |
| 2026-04-25 19:08 | 57.19910 | -4.41699 | 30682 ft | 361 kts | 298° |
| 2026-04-25 19:09 | 57.24215 | -4.53598 | 30715 ft | 380 kts | 298° |
| 2026-04-25 19:09 | 57.25187 | -4.56289 | 30722 ft | 380 kts | 298° |
| 2026-04-25 19:10 | 57.30015 | -4.69738 | 30757 ft | 375 kts | 297° |
| 2026-04-25 19:10 | 57.32868 | -4.77758 | 30781 ft | 374 kts | 297° |
| 2026-04-25 19:11 | 57.35794 | -4.85709 | 30805 ft | 378 kts | 301° |
| 2026-04-25 19:11 | 57.39265 | -4.93112 | 30831 ft | 383 kts | 307° |
| 2026-04-25 19:12 | 57.43044 | -5.00164 | 30858 ft | 388 kts | 309° |
| 2026-04-25 19:12 | 57.46954 | -5.07151 | 30883 ft | 390 kts | 310° |
| 2026-04-25 19:13 | 57.50872 | -5.14065 | 30917 ft | 389 kts | 310° |
| 2026-04-25 19:13 | 57.52833 | -5.17511 | 31075 ft | 387 kts | 310° |
| 2026-04-25 19:13 | 57.54744 | -5.20869 | 31248 ft | 387 kts | 310° |
| 2026-04-25 19:13 | 57.56730 | -5.24362 | 31426 ft | 388 kts | 310° |
| 2026-04-25 19:14 | 57.58681 | -5.27797 | 31601 ft | 390 kts | 310° |
| 2026-04-25 19:14 | 57.59988 | -5.30100 | 31718 ft | 390 kts | 310° |
| 2026-04-25 19:14 | 57.62628 | -5.34752 | 31953 ft | 389 kts | 310° |
| 2026-04-25 19:14 | 57.64587 | -5.38211 | 32126 ft | 389 kts | 310° |
| 2026-04-25 19:15 | 57.66560 | -5.41699 | 32301 ft | 388 kts | 310° |
| 2026-04-25 19:15 | 57.68497 | -5.45127 | 32475 ft | 387 kts | 310° |
| 2026-04-25 19:15 | 57.70432 | -5.48556 | 32640 ft | 386 kts | 310° |
| 2026-04-25 19:16 | 57.74340 | -5.55504 | 32528 ft | 389 kts | 310° |
| 2026-04-25 19:16 | 57.78233 | -5.62440 | 32348 ft | 386 kts | 310° |
| 2026-04-25 19:17 | 57.82116 | -5.69381 | 32234 ft | 384 kts | 309° |
| 2026-04-25 19:17 | 57.85964 | -5.76290 | 32237 ft | 385 kts | 309° |
| 2026-04-25 19:18 | 57.89836 | -5.83261 | 32236 ft | 386 kts | 309° |
| 2026-04-25 19:18 | 57.93693 | -5.90224 | 32237 ft | 386 kts | 309° |
| 2026-04-25 19:19 | 57.97566 | -5.97235 | 32236 ft | 386 kts | 309° |
| 2026-04-25 19:19 | 58.01398 | -6.04196 | 32236 ft | 385 kts | 309° |
| 2026-04-25 19:20 | 58.05286 | -6.11284 | 32239 ft | 396 kts | 309° |
| 2026-04-25 19:20 | 58.09294 | -6.18606 | 32238 ft | 412 kts | 310° |
| 2026-04-25 19:21 | 58.13482 | -6.26267 | 32235 ft | 425 kts | 310° |
| 2026-04-25 19:21 | 58.18518 | -6.35492 | 32233 ft | 423 kts | 310° |
| 2026-04-25 19:22 | 58.22710 | -6.43222 | 32236 ft | 421 kts | 309° |
| 2026-04-25 19:23 | 58.28967 | -6.54824 | 32236 ft | 422 kts | 310° |
| 2026-04-25 19:23 | 58.35274 | -6.66580 | 32236 ft | 423 kts | 309° |
| 2026-04-25 19:24 | 58.39427 | -6.74357 | 32234 ft | 421 kts | 309° |
| 2026-04-25 19:25 | 58.47738 | -6.90012 | 32236 ft | 422 kts | 309° |
| 2026-04-25 19:25 | 58.51905 | -6.97893 | 32235 ft | 422 kts | 309° |
| 2026-04-25 19:26 | 58.56060 | -7.05785 | 32236 ft | 424 kts | 309° |
| 2026-04-25 19:26 | 58.60227 | -7.13729 | 32237 ft | 427 kts | 309° |
| 2026-04-25 19:27 | 58.63732 | -7.20423 | 32247 ft | 429 kts | 309° |
| 2026-04-25 19:27 | 58.68718 | -7.29849 | 32229 ft | 429 kts | 309° |
| 2026-04-25 19:28 | 58.72902 | -7.37967 | 32235 ft | 428 kts | 309° |
| 2026-04-25 19:28 | 58.77073 | -7.46063 | 32235 ft | 429 kts | 309° |
| 2026-04-25 19:29 | 58.81265 | -7.54212 | 32217 ft | 429 kts | 309° |
| 2026-04-25 19:29 | 58.85462 | -7.62388 | 32199 ft | 429 kts | 309° |
| 2026-04-25 19:30 | 58.89640 | -7.70561 | 32184 ft | 429 kts | 309° |
| 2026-04-25 19:30 | 58.93820 | -7.78765 | 32192 ft | 429 kts | 309° |
| 2026-04-25 19:31 | 58.98004 | -7.87009 | 32191 ft | 432 kts | 310° |
| 2026-04-25 19:31 | 59.02225 | -7.95345 | 32181 ft | 432 kts | 310° |
| 2026-04-25 19:32 | 59.06426 | -8.03672 | 32182 ft | 432 kts | 310° |
| 2026-04-25 19:32 | 59.09896 | -8.10576 | 32182 ft | 433 kts | 310° |
| 2026-04-25 19:33 | 59.14804 | -8.20377 | 32188 ft | 435 kts | 310° |
| 2026-04-25 19:33 | 59.17428 | -8.25633 | 32184 ft | 444 kts | 310° |
| 2026-04-25 19:34 | 59.20905 | -8.32595 | 32179 ft | 446 kts | 311° |
| 2026-04-25 19:34 | 59.25186 | -8.41203 | 32180 ft | 441 kts | 310° |
| 2026-04-25 19:35 | 59.29455 | -8.49846 | 32182 ft | 441 kts | 310° |
| 2026-04-25 19:35 | 59.33706 | -8.58484 | 32182 ft | 443 kts | 310° |
| 2026-04-25 19:36 | 59.37954 | -8.67144 | 32182 ft | 443 kts | 310° |
| 2026-04-25 19:36 | 59.42211 | -8.75847 | 32182 ft | 441 kts | 310° |
| 2026-04-25 19:37 | 59.46436 | -8.84542 | 32182 ft | 442 kts | 310° |